sensor_id;sensor_type;location;lat;lon;timestamp;P1;durP1;ratioP1;P2;durP2;ratioP2
12435;SDS011;6282;51.440;6.938;2023-04-24T00:01:06;1.35;;;0.70;;
12435;SDS011;6282;51.440;6.938;2023-04-24T00:03:35;0.75;;;0.60;;
12435;SDS011;6282;51.440;6.938;2023-04-24T00:06:04;1.70;;;1.10;;
12435;SDS011;6282;51.440;6.938;2023-04-24T00:08:31;2.30;;;1.00;;
12435;SDS011;6282;51.440;6.938;2023-04-24T00:10:58;1.83;;;0.90;;
12435;SDS011;6282;51.440;6.938;2023-04-24T00:13:25;0.63;;;0.63;;
12435;SDS011;6282;51.440;6.938;2023-04-24T00:15:53;1.00;;;0.70;;
12435;SDS011;6282;51.440;6.938;2023-04-24T00:18:20;1.73;;;0.85;;
12435;SDS011;6282;51.440;6.938;2023-04-24T00:20:48;2.95;;;0.70;;
12435;SDS011;6282;51.440;6.938;2023-04-24T00:23:15;0.80;;;0.80;;
12435;SDS011;6282;51.440;6.938;2023-04-24T00:25:42;0.80;;;0.80;;
12435;SDS011;6282;51.440;6.938;2023-04-24T00:28:08;3.40;;;3.10;;
12435;SDS011;6282;51.440;6.938;2023-04-24T00:30:35;1.60;;;1.05;;
12435;SDS011;6282;51.440;6.938;2023-04-24T00:33:02;1.27;;;0.90;;
12435;SDS011;6282;51.440;6.938;2023-04-24T00:35:29;0.80;;;0.80;;
12435;SDS011;6282;51.440;6.938;2023-04-24T00:37:57;2.38;;;0.93;;
12435;SDS011;6282;51.440;6.938;2023-04-24T00:40:24;0.93;;;0.90;;
12435;SDS011;6282;51.440;6.938;2023-04-24T00:42:54;0.90;;;0.90;;
12435;SDS011;6282;51.440;6.938;2023-04-24T00:45:21;2.92;;;1.02;;
12435;SDS011;6282;51.440;6.938;2023-04-24T00:47:48;1.05;;;1.05;;
12435;SDS011;6282;51.440;6.938;2023-04-24T00:50:15;0.75;;;0.75;;
12435;SDS011;6282;51.440;6.938;2023-04-24T00:52:42;0.82;;;0.82;;
12435;SDS011;6282;51.440;6.938;2023-04-24T00:55:11;1.27;;;1.17;;
12435;SDS011;6282;51.440;6.938;2023-04-24T00:57:37;1.05;;;0.90;;
12435;SDS011;6282;51.440;6.938;2023-04-24T01:00:05;1.38;;;1.27;;
12435;SDS011;6282;51.440;6.938;2023-04-24T01:02:35;1.55;;;1.00;;
12435;SDS011;6282;51.440;6.938;2023-04-24T01:05:05;1.30;;;1.17;;
12435;SDS011;6282;51.440;6.938;2023-04-24T01:07:39;1.38;;;1.20;;
12435;SDS011;6282;51.440;6.938;2023-04-24T01:10:26;2.10;;;1.02;;
12435;SDS011;6282;51.440;6.938;2023-04-24T01:12:55;1.30;;;1.20;;
12435;SDS011;6282;51.440;6.938;2023-04-24T01:15:22;1.73;;;1.63;;
12435;SDS011;6282;51.440;6.938;2023-04-24T01:17:49;1.85;;;1.60;;
12435;SDS011;6282;51.440;6.938;2023-04-24T01:20:16;1.65;;;1.52;;
12435;SDS011;6282;51.440;6.938;2023-04-24T01:22:45;1.30;;;1.20;;
12435;SDS011;6282;51.440;6.938;2023-04-24T01:25:12;2.00;;;1.35;;
12435;SDS011;6282;51.440;6.938;2023-04-24T01:27:39;1.92;;;1.58;;
12435;SDS011;6282;51.440;6.938;2023-04-24T01:30:06;1.90;;;1.80;;
12435;SDS011;6282;51.440;6.938;2023-04-24T01:32:34;1.60;;;1.50;;
12435;SDS011;6282;51.440;6.938;2023-04-24T01:35:01;1.98;;;1.63;;
12435;SDS011;6282;51.440;6.938;2023-04-24T01:37:28;3.33;;;1.65;;
12435;SDS011;6282;51.440;6.938;2023-04-24T01:39:58;2.13;;;1.70;;
12435;SDS011;6282;51.440;6.938;2023-04-24T01:42:25;2.30;;;2.10;;
12435;SDS011;6282;51.440;6.938;2023-04-24T01:44:52;2.40;;;2.20;;
12435;SDS011;6282;51.440;6.938;2023-04-24T01:47:20;3.17;;;2.88;;
12435;SDS011;6282;51.440;6.938;2023-04-24T01:49:47;3.50;;;2.70;;
12435;SDS011;6282;51.440;6.938;2023-04-24T01:52:15;4.18;;;2.60;;
12435;SDS011;6282;51.440;6.938;2023-04-24T01:54:43;3.30;;;2.92;;
12435;SDS011;6282;51.440;6.938;2023-04-24T01:57:12;2.80;;;2.50;;
12435;SDS011;6282;51.440;6.938;2023-04-24T01:59:39;3.75;;;2.78;;
12435;SDS011;6282;51.440;6.938;2023-04-24T02:02:07;3.72;;;2.83;;
12435;SDS011;6282;51.440;6.938;2023-04-24T02:04:34;3.50;;;3.20;;
12435;SDS011;6282;51.440;6.938;2023-04-24T02:07:01;4.15;;;3.58;;
12435;SDS011;6282;51.440;6.938;2023-04-24T02:09:28;4.63;;;3.55;;
12435;SDS011;6282;51.440;6.938;2023-04-24T02:11:55;5.47;;;3.20;;
12435;SDS011;6282;51.440;6.938;2023-04-24T02:14:23;4.43;;;3.30;;
12435;SDS011;6282;51.440;6.938;2023-04-24T02:16:50;4.47;;;3.63;;
12435;SDS011;6282;51.440;6.938;2023-04-24T02:19:18;5.63;;;3.60;;
12435;SDS011;6282;51.440;6.938;2023-04-24T02:21:45;4.30;;;3.88;;
12435;SDS011;6282;51.440;6.938;2023-04-24T02:24:12;7.40;;;4.40;;
12435;SDS011;6282;51.440;6.938;2023-04-24T02:26:38;4.22;;;3.70;;
12435;SDS011;6282;51.440;6.938;2023-04-24T02:29:05;5.82;;;4.20;;
12435;SDS011;6282;51.440;6.938;2023-04-24T02:31:33;8.05;;;5.00;;
12435;SDS011;6282;51.440;6.938;2023-04-24T02:34:00;5.47;;;4.90;;
12435;SDS011;6282;51.440;6.938;2023-04-24T02:36:27;5.10;;;4.60;;
12435;SDS011;6282;51.440;6.938;2023-04-24T02:38:55;8.43;;;4.75;;
12435;SDS011;6282;51.440;6.938;2023-04-24T02:41:22;8.68;;;5.40;;
12435;SDS011;6282;51.440;6.938;2023-04-24T02:43:48;7.55;;;5.60;;
12435;SDS011;6282;51.440;6.938;2023-04-24T02:46:23;9.43;;;5.18;;
12435;SDS011;6282;51.440;6.938;2023-04-24T02:48:50;9.70;;;5.82;;
12435;SDS011;6282;51.440;6.938;2023-04-24T02:51:17;7.15;;;5.47;;
12435;SDS011;6282;51.440;6.938;2023-04-24T02:53:44;8.88;;;5.90;;
12435;SDS011;6282;51.440;6.938;2023-04-24T02:56:11;6.78;;;5.47;;
12435;SDS011;6282;51.440;6.938;2023-04-24T02:58:38;10.65;;;6.10;;
12435;SDS011;6282;51.440;6.938;2023-04-24T03:01:04;8.90;;;5.95;;
12435;SDS011;6282;51.440;6.938;2023-04-24T03:03:33;9.40;;;6.10;;
12435;SDS011;6282;51.440;6.938;2023-04-24T03:06:00;8.37;;;6.50;;
12435;SDS011;6282;51.440;6.938;2023-04-24T03:08:26;9.93;;;7.00;;
12435;SDS011;6282;51.440;6.938;2023-04-24T03:10:53;8.52;;;6.35;;
12435;SDS011;6282;51.440;6.938;2023-04-24T03:13:20;9.45;;;6.28;;
12435;SDS011;6282;51.440;6.938;2023-04-24T03:15:47;10.50;;;7.63;;
12435;SDS011;6282;51.440;6.938;2023-04-24T03:18:14;11.70;;;7.03;;
12435;SDS011;6282;51.440;6.938;2023-04-24T03:20:43;11.23;;;7.18;;
12435;SDS011;6282;51.440;6.938;2023-04-24T03:23:12;12.70;;;11.38;;
12435;SDS011;6282;51.440;6.938;2023-04-24T03:25:39;10.05;;;7.32;;
12435;SDS011;6282;51.440;6.938;2023-04-24T03:28:07;11.98;;;7.25;;
12435;SDS011;6282;51.440;6.938;2023-04-24T03:30:34;13.03;;;7.43;;
12435;SDS011;6282;51.440;6.938;2023-04-24T03:33:01;13.57;;;7.72;;
12435;SDS011;6282;51.440;6.938;2023-04-24T03:35:28;10.38;;;7.10;;
12435;SDS011;6282;51.440;6.938;2023-04-24T03:37:56;9.90;;;6.70;;
12435;SDS011;6282;51.440;6.938;2023-04-24T03:40:23;10.85;;;7.95;;
12435;SDS011;6282;51.440;6.938;2023-04-24T03:42:50;8.98;;;7.35;;
12435;SDS011;6282;51.440;6.938;2023-04-24T03:45:17;10.82;;;7.35;;
12435;SDS011;6282;51.440;6.938;2023-04-24T03:47:43;11.18;;;7.75;;
12435;SDS011;6282;51.440;6.938;2023-04-24T03:50:10;10.75;;;7.00;;
12435;SDS011;6282;51.440;6.938;2023-04-24T03:52:37;10.70;;;7.43;;
12435;SDS011;6282;51.440;6.938;2023-04-24T03:55:06;11.18;;;7.32;;
12435;SDS011;6282;51.440;6.938;2023-04-24T03:57:33;9.15;;;7.38;;
12435;SDS011;6282;51.440;6.938;2023-04-24T04:00:00;14.95;;;6.88;;
12435;SDS011;6282;51.440;6.938;2023-04-24T04:02:31;9.40;;;6.78;;
12435;SDS011;6282;51.440;6.938;2023-04-24T04:04:58;10.50;;;7.00;;
12435;SDS011;6282;51.440;6.938;2023-04-24T04:07:24;9.65;;;7.50;;
12435;SDS011;6282;51.440;6.938;2023-04-24T04:09:51;10.35;;;6.50;;
12435;SDS011;6282;51.440;6.938;2023-04-24T04:12:19;10.68;;;6.85;;
12435;SDS011;6282;51.440;6.938;2023-04-24T04:14:46;8.20;;;6.70;;
12435;SDS011;6282;51.440;6.938;2023-04-24T04:17:13;10.98;;;6.72;;
12435;SDS011;6282;51.440;6.938;2023-04-24T04:19:40;9.38;;;7.60;;
12435;SDS011;6282;51.440;6.938;2023-04-24T04:22:07;9.85;;;6.68;;
12435;SDS011;6282;51.440;6.938;2023-04-24T04:24:34;10.13;;;6.93;;
12435;SDS011;6282;51.440;6.938;2023-04-24T04:27:03;7.40;;;6.40;;
12435;SDS011;6282;51.440;6.938;2023-04-24T04:29:31;8.65;;;6.82;;
12435;SDS011;6282;51.440;6.938;2023-04-24T04:32:00;10.18;;;7.03;;
12435;SDS011;6282;51.440;6.938;2023-04-24T04:34:27;10.40;;;6.75;;
12435;SDS011;6282;51.440;6.938;2023-04-24T04:36:56;7.68;;;6.82;;
12435;SDS011;6282;51.440;6.938;2023-04-24T04:39:26;9.83;;;6.90;;
12435;SDS011;6282;51.440;6.938;2023-04-24T04:41:54;8.13;;;6.65;;
12435;SDS011;6282;51.440;6.938;2023-04-24T04:44:22;11.60;;;6.80;;
12435;SDS011;6282;51.440;6.938;2023-04-24T04:46:50;9.43;;;6.82;;
12435;SDS011;6282;51.440;6.938;2023-04-24T04:49:21;8.88;;;6.28;;
12435;SDS011;6282;51.440;6.938;2023-04-24T04:51:48;7.97;;;6.70;;
12435;SDS011;6282;51.440;6.938;2023-04-24T04:54:15;10.75;;;6.35;;
12435;SDS011;6282;51.440;6.938;2023-04-24T04:56:42;9.20;;;7.35;;
12435;SDS011;6282;51.440;6.938;2023-04-24T04:59:09;8.18;;;6.70;;
12435;SDS011;6282;51.440;6.938;2023-04-24T05:01:37;10.25;;;6.97;;
12435;SDS011;6282;51.440;6.938;2023-04-24T05:04:06;10.10;;;6.03;;
12435;SDS011;6282;51.440;6.938;2023-04-24T05:06:33;9.07;;;6.40;;
12435;SDS011;6282;51.440;6.938;2023-04-24T05:09:00;6.37;;;5.63;;
12435;SDS011;6282;51.440;6.938;2023-04-24T05:11:28;8.38;;;6.30;;
12435;SDS011;6282;51.440;6.938;2023-04-24T05:13:55;7.40;;;5.95;;
12435;SDS011;6282;51.440;6.938;2023-04-24T05:16:22;7.43;;;5.70;;
12435;SDS011;6282;51.440;6.938;2023-04-24T05:18:49;10.15;;;6.07;;
12435;SDS011;6282;51.440;6.938;2023-04-24T05:21:17;8.20;;;5.60;;
12435;SDS011;6282;51.440;6.938;2023-04-24T05:23:44;6.83;;;6.13;;
12435;SDS011;6282;51.440;6.938;2023-04-24T05:26:10;6.60;;;6.00;;
12435;SDS011;6282;51.440;6.938;2023-04-24T05:28:37;7.20;;;6.40;;
12435;SDS011;6282;51.440;6.938;2023-04-24T05:31:04;9.43;;;6.97;;
12435;SDS011;6282;51.440;6.938;2023-04-24T05:33:31;9.93;;;7.30;;
12435;SDS011;6282;51.440;6.938;2023-04-24T05:35:58;10.43;;;8.40;;
12435;SDS011;6282;51.440;6.938;2023-04-24T05:38:26;11.03;;;7.70;;
12435;SDS011;6282;51.440;6.938;2023-04-24T05:40:53;12.37;;;8.80;;
12435;SDS011;6282;51.440;6.938;2023-04-24T05:43:20;10.30;;;8.10;;
12435;SDS011;6282;51.440;6.938;2023-04-24T05:45:47;10.77;;;8.60;;
12435;SDS011;6282;51.440;6.938;2023-04-24T05:48:13;12.30;;;8.80;;
12435;SDS011;6282;51.440;6.938;2023-04-24T05:50:40;10.70;;;8.50;;
12435;SDS011;6282;51.440;6.938;2023-04-24T05:53:08;13.37;;;9.20;;
12435;SDS011;6282;51.440;6.938;2023-04-24T05:55:36;11.88;;;8.57;;
12435;SDS011;6282;51.440;6.938;2023-04-24T05:58:03;10.77;;;9.33;;
12435;SDS011;6282;51.440;6.938;2023-04-24T06:00:31;11.13;;;8.27;;
12435;SDS011;6282;51.440;6.938;2023-04-24T06:02:59;9.83;;;8.20;;
12435;SDS011;6282;51.440;6.938;2023-04-24T06:05:26;9.17;;;8.27;;
12435;SDS011;6282;51.440;6.938;2023-04-24T06:07:52;9.30;;;7.40;;
12435;SDS011;6282;51.440;6.938;2023-04-24T06:10:19;8.83;;;7.20;;
12435;SDS011;6282;51.440;6.938;2023-04-24T06:12:48;8.75;;;6.90;;
12435;SDS011;6282;51.440;6.938;2023-04-24T06:15:15;9.80;;;6.67;;
12435;SDS011;6282;51.440;6.938;2023-04-24T06:17:42;8.98;;;6.35;;
12435;SDS011;6282;51.440;6.938;2023-04-24T06:20:09;7.50;;;6.00;;
12435;SDS011;6282;51.440;6.938;2023-04-24T06:22:36;7.35;;;6.43;;
12435;SDS011;6282;51.440;6.938;2023-04-24T06:25:05;8.40;;;6.25;;
12435;SDS011;6282;51.440;6.938;2023-04-24T06:27:32;9.10;;;6.43;;
12435;SDS011;6282;51.440;6.938;2023-04-24T06:30:00;7.77;;;6.50;;
12435;SDS011;6282;51.440;6.938;2023-04-24T06:32:28;108.97;;;30.67;;
12435;SDS011;6282;51.440;6.938;2023-04-24T06:34:55;7.72;;;6.80;;
12435;SDS011;6282;51.440;6.938;2023-04-24T06:37:22;8.02;;;7.13;;
12435;SDS011;6282;51.440;6.938;2023-04-24T06:39:49;8.68;;;7.57;;
12435;SDS011;6282;51.440;6.938;2023-04-24T06:42:16;7.77;;;6.97;;
12435;SDS011;6282;51.440;6.938;2023-04-24T06:44:45;10.27;;;6.87;;
12435;SDS011;6282;51.440;6.938;2023-04-24T06:47:13;9.00;;;6.87;;
12435;SDS011;6282;51.440;6.938;2023-04-24T06:49:41;9.20;;;7.03;;
12435;SDS011;6282;51.440;6.938;2023-04-24T06:52:08;7.77;;;6.37;;
12435;SDS011;6282;51.440;6.938;2023-04-24T06:54:34;9.63;;;7.10;;
12435;SDS011;6282;51.440;6.938;2023-04-24T06:57:01;7.07;;;6.37;;
12435;SDS011;6282;51.440;6.938;2023-04-24T06:59:28;7.57;;;6.00;;
12435;SDS011;6282;51.440;6.938;2023-04-24T07:01:56;6.68;;;5.93;;
12435;SDS011;6282;51.440;6.938;2023-04-24T07:04:24;6.22;;;5.15;;
12435;SDS011;6282;51.440;6.938;2023-04-24T07:06:51;8.85;;;5.28;;
12435;SDS011;6282;51.440;6.938;2023-04-24T07:09:20;5.35;;;4.50;;
12435;SDS011;6282;51.440;6.938;2023-04-24T07:11:48;6.45;;;4.53;;
12435;SDS011;6282;51.440;6.938;2023-04-24T07:14:15;37.28;;;25.20;;
12435;SDS011;6282;51.440;6.938;2023-04-24T07:16:42;6.07;;;4.63;;
12435;SDS011;6282;51.440;6.938;2023-04-24T07:19:10;4.73;;;4.33;;
12435;SDS011;6282;51.440;6.938;2023-04-24T07:21:40;5.37;;;4.60;;
12435;SDS011;6282;51.440;6.938;2023-04-24T07:24:06;4.80;;;4.30;;
12435;SDS011;6282;51.440;6.938;2023-04-24T07:26:36;3.70;;;3.38;;
12435;SDS011;6282;51.440;6.938;2023-04-24T07:29:04;3.95;;;3.58;;
12435;SDS011;6282;51.440;6.938;2023-04-24T07:31:30;4.28;;;3.40;;
12435;SDS011;6282;51.440;6.938;2023-04-24T07:33:57;3.60;;;3.15;;
12435;SDS011;6282;51.440;6.938;2023-04-24T07:36:24;3.30;;;2.38;;
12435;SDS011;6282;51.440;6.938;2023-04-24T07:38:53;2.60;;;2.40;;
12435;SDS011;6282;51.440;6.938;2023-04-24T07:41:21;2.63;;;2.42;;
12435;SDS011;6282;51.440;6.938;2023-04-24T07:43:49;1.77;;;1.67;;
12435;SDS011;6282;51.440;6.938;2023-04-24T07:46:16;1.67;;;1.58;;
12435;SDS011;6282;51.440;6.938;2023-04-24T07:48:43;1.13;;;1.13;;
12435;SDS011;6282;51.440;6.938;2023-04-24T07:51:11;1.30;;;1.20;;
12435;SDS011;6282;51.440;6.938;2023-04-24T07:53:38;0.80;;;0.80;;
12435;SDS011;6282;51.440;6.938;2023-04-24T07:56:06;1.02;;;0.90;;
12435;SDS011;6282;51.440;6.938;2023-04-24T07:58:33;0.68;;;0.68;;
12435;SDS011;6282;51.440;6.938;2023-04-24T08:01:00;0.80;;;0.80;;
12435;SDS011;6282;51.440;6.938;2023-04-24T08:03:27;1.73;;;0.70;;
12435;SDS011;6282;51.440;6.938;2023-04-24T08:05:54;0.60;;;0.60;;
12435;SDS011;6282;51.440;6.938;2023-04-24T08:08:21;0.60;;;0.60;;
12435;SDS011;6282;51.440;6.938;2023-04-24T08:10:49;0.70;;;0.70;;
12435;SDS011;6282;51.440;6.938;2023-04-24T08:13:17;0.60;;;0.60;;
12435;SDS011;6282;51.440;6.938;2023-04-24T08:15:44;0.82;;;0.82;;
12435;SDS011;6282;51.440;6.938;2023-04-24T08:18:11;0.93;;;0.90;;
12435;SDS011;6282;51.440;6.938;2023-04-24T08:20:38;1.83;;;0.80;;
12435;SDS011;6282;51.440;6.938;2023-04-24T08:23:05;0.83;;;0.80;;
12435;SDS011;6282;51.440;6.938;2023-04-24T08:25:32;0.90;;;0.73;;
12435;SDS011;6282;51.440;6.938;2023-04-24T08:28:00;0.70;;;0.70;;
12435;SDS011;6282;51.440;6.938;2023-04-24T08:30:29;1.23;;;1.00;;
12435;SDS011;6282;51.440;6.938;2023-04-24T08:32:56;1.20;;;1.20;;
12435;SDS011;6282;51.440;6.938;2023-04-24T08:35:23;1.27;;;1.17;;
12435;SDS011;6282;51.440;6.938;2023-04-24T08:37:51;1.10;;;1.10;;
12435;SDS011;6282;51.440;6.938;2023-04-24T08:40:18;1.73;;;1.63;;
12435;SDS011;6282;51.440;6.938;2023-04-24T08:42:53;3.85;;;2.15;;
12435;SDS011;6282;51.440;6.938;2023-04-24T08:45:21;2.83;;;1.87;;
12435;SDS011;6282;51.440;6.938;2023-04-24T08:47:49;1.70;;;1.60;;
12435;SDS011;6282;51.440;6.938;2023-04-24T08:50:18;1.90;;;1.80;;
12435;SDS011;6282;51.440;6.938;2023-04-24T08:52:45;1.90;;;1.80;;
12435;SDS011;6282;51.440;6.938;2023-04-24T08:55:13;1.60;;;1.50;;
12435;SDS011;6282;51.440;6.938;2023-04-24T08:57:41;3.85;;;1.60;;
12435;SDS011;6282;51.440;6.938;2023-04-24T09:00:10;2.72;;;1.52;;
12435;SDS011;6282;51.440;6.938;2023-04-24T09:02:39;1.73;;;1.52;;
12435;SDS011;6282;51.440;6.938;2023-04-24T09:05:09;2.83;;;1.40;;
12435;SDS011;6282;51.440;6.938;2023-04-24T09:07:36;4.38;;;1.70;;
12435;SDS011;6282;51.440;6.938;2023-04-24T09:10:07;2.55;;;1.55;;
12435;SDS011;6282;51.440;6.938;2023-04-24T09:12:34;2.88;;;1.50;;
12435;SDS011;6282;51.440;6.938;2023-04-24T09:15:02;1.85;;;1.30;;
12435;SDS011;6282;51.440;6.938;2023-04-24T09:17:30;1.40;;;1.30;;
12435;SDS011;6282;51.440;6.938;2023-04-24T09:19:57;2.30;;;2.10;;
12435;SDS011;6282;51.440;6.938;2023-04-24T09:22:25;3.53;;;2.58;;
12435;SDS011;6282;51.440;6.938;2023-04-24T09:24:59;5.13;;;4.23;;
12435;SDS011;6282;51.440;6.938;2023-04-24T09:27:28;9.65;;;8.57;;
12435;SDS011;6282;51.440;6.938;2023-04-24T09:29:55;10.15;;;9.15;;
12435;SDS011;6282;51.440;6.938;2023-04-24T09:32:23;10.10;;;5.53;;
12435;SDS011;6282;51.440;6.938;2023-04-24T09:35:04;8.67;;;7.60;;
12435;SDS011;6282;51.440;6.938;2023-04-24T09:37:36;7.88;;;4.43;;
12435;SDS011;6282;51.440;6.938;2023-04-24T09:40:10;5.97;;;5.38;;
12435;SDS011;6282;51.440;6.938;2023-04-24T09:42:44;3.58;;;3.28;;
12435;SDS011;6282;51.440;6.938;2023-04-24T09:45:12;5.55;;;3.60;;
12435;SDS011;6282;51.440;6.938;2023-04-24T09:47:40;4.63;;;3.22;;
12435;SDS011;6282;51.440;6.938;2023-04-24T09:50:11;4.32;;;3.35;;
12435;SDS011;6282;51.440;6.938;2023-04-24T09:52:41;14.88;;;13.05;;
12435;SDS011;6282;51.440;6.938;2023-04-24T09:55:13;7.20;;;3.50;;
12435;SDS011;6282;51.440;6.938;2023-04-24T09:57:49;5.22;;;4.15;;
12435;SDS011;6282;51.440;6.938;2023-04-24T10:00:23;10.50;;;7.28;;
12435;SDS011;6282;51.440;6.938;2023-04-24T10:02:53;5.97;;;4.40;;
12435;SDS011;6282;51.440;6.938;2023-04-24T10:05:26;6.35;;;4.15;;
12435;SDS011;6282;51.440;6.938;2023-04-24T10:07:57;6.60;;;4.75;;
12435;SDS011;6282;51.440;6.938;2023-04-24T10:10:26;5.28;;;4.57;;
12435;SDS011;6282;51.440;6.938;2023-04-24T10:12:53;7.07;;;4.80;;
12435;SDS011;6282;51.440;6.938;2023-04-24T10:15:20;7.40;;;4.80;;
12435;SDS011;6282;51.440;6.938;2023-04-24T10:17:48;7.30;;;5.40;;
12435;SDS011;6282;51.440;6.938;2023-04-24T10:20:17;13.20;;;8.73;;
12435;SDS011;6282;51.440;6.938;2023-04-24T10:22:46;18.40;;;11.02;;
12435;SDS011;6282;51.440;6.938;2023-04-24T10:25:17;7.72;;;6.22;;
12435;SDS011;6282;51.440;6.938;2023-04-24T10:27:46;12.95;;;4.80;;
12435;SDS011;6282;51.440;6.938;2023-04-24T10:30:14;7.47;;;4.60;;
12435;SDS011;6282;51.440;6.938;2023-04-24T10:32:42;6.78;;;3.92;;
12435;SDS011;6282;51.440;6.938;2023-04-24T10:35:09;9.53;;;3.97;;
12435;SDS011;6282;51.440;6.938;2023-04-24T10:37:38;7.43;;;4.40;;
12435;SDS011;6282;51.440;6.938;2023-04-24T10:40:07;7.37;;;4.20;;
12435;SDS011;6282;51.440;6.938;2023-04-24T10:42:37;8.23;;;4.30;;
12435;SDS011;6282;51.440;6.938;2023-04-24T10:45:15;9.68;;;4.07;;
12435;SDS011;6282;51.440;6.938;2023-04-24T10:47:50;8.63;;;3.88;;
12435;SDS011;6282;51.440;6.938;2023-04-24T10:50:18;7.43;;;3.65;;
12435;SDS011;6282;51.440;6.938;2023-04-24T10:52:45;7.33;;;4.50;;
12435;SDS011;6282;51.440;6.938;2023-04-24T10:55:12;8.20;;;4.35;;
12435;SDS011;6282;51.440;6.938;2023-04-24T10:57:41;6.97;;;4.30;;
12435;SDS011;6282;51.440;6.938;2023-04-24T11:00:28;8.67;;;5.17;;
12435;SDS011;6282;51.440;6.938;2023-04-24T11:02:55;7.20;;;4.65;;
12435;SDS011;6282;51.440;6.938;2023-04-24T11:05:23;10.05;;;4.47;;
12435;SDS011;6282;51.440;6.938;2023-04-24T11:08:22;13.68;;;4.40;;
12435;SDS011;6282;51.440;6.938;2023-04-24T11:10:54;7.30;;;4.45;;
12435;SDS011;6282;51.440;6.938;2023-04-24T11:13:24;7.75;;;3.40;;
12435;SDS011;6282;51.440;6.938;2023-04-24T11:18:41;8.45;;;3.78;;
12435;SDS011;6282;51.440;6.938;2023-04-24T11:21:11;8.60;;;4.22;;
12435;SDS011;6282;51.440;6.938;2023-04-24T11:23:38;9.60;;;4.45;;
12435;SDS011;6282;51.440;6.938;2023-04-24T11:26:12;10.52;;;4.65;;
12435;SDS011;6282;51.440;6.938;2023-04-24T11:28:47;9.93;;;4.13;;
12435;SDS011;6282;51.440;6.938;2023-04-24T11:31:34;7.65;;;4.72;;
12435;SDS011;6282;51.440;6.938;2023-04-24T11:34:05;8.63;;;4.15;;
12435;SDS011;6282;51.440;6.938;2023-04-24T11:36:33;10.32;;;4.43;;
12435;SDS011;6282;51.440;6.938;2023-04-24T11:39:01;6.53;;;3.67;;
12435;SDS011;6282;51.440;6.938;2023-04-24T11:41:28;5.30;;;2.92;;
12435;SDS011;6282;51.440;6.938;2023-04-24T11:43:56;6.13;;;3.08;;
12435;SDS011;6282;51.440;6.938;2023-04-24T11:46:26;5.95;;;2.85;;
12435;SDS011;6282;51.440;6.938;2023-04-24T11:48:54;6.75;;;2.90;;
12435;SDS011;6282;51.440;6.938;2023-04-24T11:51:22;6.25;;;3.00;;
12435;SDS011;6282;51.440;6.938;2023-04-24T11:53:49;2.90;;;2.15;;
12435;SDS011;6282;51.440;6.938;2023-04-24T11:56:17;6.20;;;2.90;;
12435;SDS011;6282;51.440;6.938;2023-04-24T11:58:45;6.15;;;2.65;;
12435;SDS011;6282;51.440;6.938;2023-04-24T12:01:13;7.47;;;2.88;;
12435;SDS011;6282;51.440;6.938;2023-04-24T12:03:40;7.18;;;2.70;;
12435;SDS011;6282;51.440;6.938;2023-04-24T12:06:09;5.72;;;2.67;;
12435;SDS011;6282;51.440;6.938;2023-04-24T12:08:37;7.55;;;2.58;;
12435;SDS011;6282;51.440;6.938;2023-04-24T12:11:05;4.22;;;2.55;;
12435;SDS011;6282;51.440;6.938;2023-04-24T12:13:33;8.07;;;2.88;;
12435;SDS011;6282;51.440;6.938;2023-04-24T12:16:01;6.90;;;2.28;;
12435;SDS011;6282;51.440;6.938;2023-04-24T12:18:30;6.03;;;2.70;;
12435;SDS011;6282;51.440;6.938;2023-04-24T12:23:43;5.15;;;2.83;;
12435;SDS011;6282;51.440;6.938;2023-04-24T12:26:10;6.80;;;3.22;;
12435;SDS011;6282;51.440;6.938;2023-04-24T12:28:38;6.47;;;3.22;;
12435;SDS011;6282;51.440;6.938;2023-04-24T12:31:06;5.80;;;2.75;;
12435;SDS011;6282;51.440;6.938;2023-04-24T12:33:34;9.57;;;3.45;;
12435;SDS011;6282;51.440;6.938;2023-04-24T12:36:02;6.15;;;3.17;;
12435;SDS011;6282;51.440;6.938;2023-04-24T12:38:30;6.85;;;3.40;;
12435;SDS011;6282;51.440;6.938;2023-04-24T12:41:05;3.97;;;2.60;;
12435;SDS011;6282;51.440;6.938;2023-04-24T12:43:33;4.43;;;2.53;;
12435;SDS011;6282;51.440;6.938;2023-04-24T12:46:00;3.55;;;2.40;;
12435;SDS011;6282;51.440;6.938;2023-04-24T12:48:27;3.80;;;2.00;;
12435;SDS011;6282;51.440;6.938;2023-04-24T12:50:55;4.30;;;2.13;;
12435;SDS011;6282;51.440;6.938;2023-04-24T12:53:26;5.55;;;2.40;;
12435;SDS011;6282;51.440;6.938;2023-04-24T12:55:54;3.58;;;2.13;;
12435;SDS011;6282;51.440;6.938;2023-04-24T12:58:21;3.00;;;1.80;;
12435;SDS011;6282;51.440;6.938;2023-04-24T13:00:48;3.38;;;1.55;;
12435;SDS011;6282;51.440;6.938;2023-04-24T13:03:15;3.35;;;1.80;;
12435;SDS011;6282;51.440;6.938;2023-04-24T13:05:42;3.33;;;1.80;;
12435;SDS011;6282;51.440;6.938;2023-04-24T13:08:11;2.40;;;1.73;;
12435;SDS011;6282;51.440;6.938;2023-04-24T13:10:38;2.88;;;1.90;;
12435;SDS011;6282;51.440;6.938;2023-04-24T13:13:06;3.05;;;1.48;;
12435;SDS011;6282;51.440;6.938;2023-04-24T13:15:33;2.50;;;1.50;;
12435;SDS011;6282;51.440;6.938;2023-04-24T13:18:00;2.38;;;1.30;;
12435;SDS011;6282;51.440;6.938;2023-04-24T13:20:27;1.58;;;1.42;;
12435;SDS011;6282;51.440;6.938;2023-04-24T13:22:54;3.08;;;1.35;;
12435;SDS011;6282;51.440;6.938;2023-04-24T13:25:22;1.98;;;1.17;;
12435;SDS011;6282;51.440;6.938;2023-04-24T13:27:50;2.00;;;1.05;;
12435;SDS011;6282;51.440;6.938;2023-04-24T13:30:16;2.30;;;1.20;;
12435;SDS011;6282;51.440;6.938;2023-04-24T13:32:43;3.25;;;1.20;;
12435;SDS011;6282;51.440;6.938;2023-04-24T13:35:10;1.45;;;1.10;;
12435;SDS011;6282;51.440;6.938;2023-04-24T13:37:37;3.95;;;1.40;;
12435;SDS011;6282;51.440;6.938;2023-04-24T13:40:04;1.92;;;1.20;;
12435;SDS011;6282;51.440;6.938;2023-04-24T13:42:33;2.85;;;0.93;;
12435;SDS011;6282;51.440;6.938;2023-04-24T13:45:00;2.42;;;1.30;;
12435;SDS011;6282;51.440;6.938;2023-04-24T13:47:27;3.17;;;1.20;;
12435;SDS011;6282;51.440;6.938;2023-04-24T13:49:54;11.32;;;5.53;;
12435;SDS011;6282;51.440;6.938;2023-04-24T13:52:21;5.35;;;1.40;;
12435;SDS011;6282;51.440;6.938;2023-04-24T13:54:47;1.60;;;0.90;;
12435;SDS011;6282;51.440;6.938;2023-04-24T13:57:14;2.03;;;1.10;;
12435;SDS011;6282;51.440;6.938;2023-04-24T13:59:43;3.47;;;1.00;;
12435;SDS011;6282;51.440;6.938;2023-04-24T14:02:11;4.57;;;1.10;;
12435;SDS011;6282;51.440;6.938;2023-04-24T14:04:38;2.38;;;1.02;;
12435;SDS011;6282;51.440;6.938;2023-04-24T14:07:04;2.03;;;0.98;;
12435;SDS011;6282;51.440;6.938;2023-04-24T14:09:33;1.95;;;1.38;;
12435;SDS011;6282;51.440;6.938;2023-04-24T14:11:59;1.55;;;1.17;;
12435;SDS011;6282;51.440;6.938;2023-04-24T14:14:27;2.33;;;1.27;;
12435;SDS011;6282;51.440;6.938;2023-04-24T14:16:56;1.35;;;0.98;;
12435;SDS011;6282;51.440;6.938;2023-04-24T14:19:23;2.55;;;1.13;;
12435;SDS011;6282;51.440;6.938;2023-04-24T14:21:50;4.63;;;1.30;;
12435;SDS011;6282;51.440;6.938;2023-04-24T14:24:17;4.78;;;1.20;;
12435;SDS011;6282;51.440;6.938;2023-04-24T14:26:44;3.47;;;1.33;;
12435;SDS011;6282;51.440;6.938;2023-04-24T14:29:11;1.23;;;1.10;;
12435;SDS011;6282;51.440;6.938;2023-04-24T14:31:38;1.80;;;1.20;;
12435;SDS011;6282;51.440;6.938;2023-04-24T14:34:06;1.45;;;1.05;;
12435;SDS011;6282;51.440;6.938;2023-04-24T14:36:33;2.72;;;1.30;;
12435;SDS011;6282;51.440;6.938;2023-04-24T14:39:00;1.13;;;0.90;;
12435;SDS011;6282;51.440;6.938;2023-04-24T14:41:31;2.42;;;1.17;;
12435;SDS011;6282;51.440;6.938;2023-04-24T14:44:00;4.07;;;1.30;;
12435;SDS011;6282;51.440;6.938;2023-04-24T14:46:27;2.60;;;1.05;;
12435;SDS011;6282;51.440;6.938;2023-04-24T14:48:55;1.80;;;1.13;;
12435;SDS011;6282;51.440;6.938;2023-04-24T14:51:23;2.08;;;1.05;;
12435;SDS011;6282;51.440;6.938;2023-04-24T14:53:51;2.05;;;1.27;;
12435;SDS011;6282;51.440;6.938;2023-04-24T14:56:18;1.92;;;1.30;;
12435;SDS011;6282;51.440;6.938;2023-04-24T14:58:45;1.42;;;1.20;;
12435;SDS011;6282;51.440;6.938;2023-04-24T15:01:12;1.92;;;1.33;;
12435;SDS011;6282;51.440;6.938;2023-04-24T15:03:39;2.40;;;1.60;;
12435;SDS011;6282;51.440;6.938;2023-04-24T15:06:06;2.90;;;1.70;;
12435;SDS011;6282;51.440;6.938;2023-04-24T15:08:34;3.38;;;1.80;;
12435;SDS011;6282;51.440;6.938;2023-04-24T15:11:01;2.97;;;1.77;;